^^

Nearby METAR Reports

 

EGNV - Tees-Side, United Kingdom
Distance from station: SW 7mi, 11km
Updated: 06/07/2022 14:50
Mostly cloudy
Mostly cloudy
 Wind from W
Wind: W 21 mph , 33 km/h
Temperature: 19°C
Dew Point: 13°C
Humidity: 68%
Barometer: 1022 hPa
Clouds: Mostly cloudy
Visibility: 6 miles , 10 km
Cloud details: Few Clouds 610 m
Mostly cloudy 823 m
2022/07/06 13:50 EGNV 061350Z 26018KT 9999 FEW020 BKN027 19/13 Q1022
EGXE - Leeming Raf, United Kingdom
Distance from station: SSW 23mi, 37km
Updated: 06/07/2022 14:50
Mostly cloudy
Mostly cloudy
 Wind from WSW
Wind: WSW 17 mph , 28 km/h
Temperature: 19°C
Dew Point: 14°C
Humidity: 73%
Barometer: 1023 hPa
Clouds: Mostly cloudy
Visibility: 6 miles , 10 km
Cloud details: Mostly cloudy 671 m
Mostly cloudy 7620 m
2022/07/06 13:50 EGXE 061350Z 25015KT 9999 BKN022 BKN250 19/14 Q1023 TEMPO 27018G30KT BKN025 RMK WHT TEMPO BLU
 
EGXZ - Topcliffe Raf, United Kingdom
Distance from station: S 27mi, 43km
Updated: 06/07/2022 14:50
Mostly cloudy
Mostly cloudy
 Wind from W
Wind: W 17 mph , 28 km/h
Temperature: 19°C
Dew Point: 13°C
Humidity: 68%
Barometer: 1023 hPa
Clouds: Mostly cloudy
Visibility: 6 miles , 10 km
Cloud details: Mostly cloudy 640 m
Mostly cloudy 914 m
2022/07/06 13:50 EGXZ 061350Z AUTO 27015KT 9999 BKN021/// BKN030/// 19/13 Q1023
EGNT - Newcastle, United Kingdom
Distance from station: NNW 34mi, 54km
Updated: 06/07/2022 14:50
Mostly cloudy
Mostly cloudy
 Wind from W
Wind: W 30 mph , 48 km/h
Temperature: 18°C
Dew Point: 13°C
Humidity: 73%
Barometer: 1020 hPa
Clouds: Mostly cloudy
Visibility: 6 miles , 10 km
Cloud details: Mostly cloudy 610 m
2022/07/06 13:50 EGNT 061350Z 26026KT 9999 BKN020 18/13 Q1020
 
EGXU - Linton-On-Ouse R, United Kingdom
Distance from station: S 37mi, 60km
Updated: 04/07/2022 11:50
NOT Current
Overcast
Overcast
 Wind from W
Wind: W 14 mph , 22 km/h
Temperature: 17°C
Dew Point: 9°C
Humidity: 59%
Barometer: 1020 hPa
Clouds: Overcast
Visibility: 6 miles , 10 km
Cloud details: Overcast 975 m
2022/07/04 10:50 EGXU 041050Z 28012KT 9999 OVC032 17/09 Q1020 RMK BLU
EGNM - Leeds And Bradfo, United Kingdom
Distance from station: SSW 52mi, 83km
Updated: 06/07/2022 14:50
Mostly cloudy
Mostly cloudy
 Wind from W
Wind: W 17 mph , 28 km/h, Gust: 29 mph , 46 km/h
Temperature: 16°C
Dew Point: 13°C
Humidity: 83%
Barometer: 1024 hPa
Clouds: Mostly cloudy
Visibility: 6 miles , 10 km
Cloud details: Partly cloudy 366 m
Mostly cloudy 549 m
2022/07/06 13:50 EGNM 061350Z 27015G25KT 230V290 9999 SCT012 BKN018 16/13 Q1024
 
EGOM - Spadeadam, United Kingdom
Distance from station: WNW 58mi, 94km
Updated: 06/07/2022 15:08
unable to load EGOM data RC=
unable to load EGOM data RC=
 
EGCN - Doncaster Sheffi, United Kingdom
Distance from station: S 77mi, 124km
Updated: 06/07/2022 14:50
Mostly cloudy
Mostly cloudy
 Wind from W
Wind: W 17 mph , 28 km/h
Temperature: 21°C
Dew Point: 12°C
Humidity: 57%
Barometer: 1025 hPa
Clouds: Mostly cloudy
Visibility: 6 miles , 10 km
Cloud details: Mostly cloudy 884 m
2022/07/06 13:50 EGCN 061350Z 27015KT 240V300 9999 BKN029 21/12 Q1025
 
EGNJ - Humberside, United Kingdom
Distance from station: SSE 80mi, 129km
Updated: 06/07/2022 15:09
unable to load EGNJ data RC=
unable to load EGNJ data RC=
 
EGNH - Blackpool Airpor, United Kingdom
Distance from station: SW 90mi, 145km
Updated: 06/07/2022 14:50
Mostly cloudy
Mostly cloudy
 Wind from W
Wind: W 18 mph , 30 km/h
Temperature: 18°C
Dew Point: 14°C
Humidity: 78%
Barometer: 1026 hPa
Clouds: Mostly cloudy
Visibility: 6 miles , 10 km
Cloud details: Few Clouds 427 m
Mostly cloudy 914 m
2022/07/06 13:50 EGNH 061350Z 28016KT 9999 FEW014 BKN030 18/14 Q1026
 
EGXP - Scampton Raf, United Kingdom
Distance from station: SSE 94mi, 151km
Updated: 06/07/2022 14:50
Partly cloudy
Partly cloudy
 Wind from W
Wind: W 21 mph , 33 km/h
Temperature: 22°C
Dew Point: 12°C
Humidity: 53%
Barometer: 1023 hPa
Clouds: Partly cloudy
Visibility: 6 miles , 10 km
Cloud details: Partly cloudy 975 m
2022/07/06 13:50 EGXP 061350Z 28018KT 9999 SCT032 22/12 Q1023 BLU
EGCC - Manchester Intl, United Kingdom
Distance from station: SSW 94mi, 152km
Updated: 06/07/2022 14:50
Overcast
Overcast
 Wind from W
Wind: W 15 mph , 24 km/h
Temperature: 18°C
Dew Point: 13°C
Humidity: 73%
Barometer: 1026 hPa
Clouds: Overcast
Visibility: 6 miles , 10 km
Cloud details: Mostly cloudy 549 m
Overcast 1036 m
2022/07/06 13:50 EGCC 061350Z AUTO 26013KT 9999 BKN018 OVC034 18/13 Q1026